createdAt,value
2019-05-12T00:01:33.233Z,99.90
2019-05-12T00:04:01.849Z,99.90
2019-05-12T00:06:30.435Z,99.90
2019-05-12T00:09:11.598Z,99.90
2019-05-12T00:11:52.977Z,99.90
2019-05-12T00:14:33.421Z,99.90
2019-05-12T00:17:15.119Z,99.90
2019-05-12T00:19:56.295Z,99.90
2019-05-12T00:22:40.791Z,99.90
2019-05-12T00:25:22.018Z,99.90
2019-05-12T00:28:02.633Z,99.90
2019-05-12T00:30:45.390Z,99.90
2019-05-12T00:33:28.218Z,99.90
2019-05-12T00:36:09.585Z,99.90
2019-05-12T00:38:51.072Z,99.90
2019-05-12T00:41:31.533Z,99.90
2019-05-12T00:44:12.453Z,99.90
2019-05-12T00:46:52.969Z,99.90
2019-05-12T00:49:33.436Z,99.90
2019-05-12T00:52:14.666Z,99.90
2019-05-12T00:54:55.061Z,99.90
2019-05-12T00:57:38.084Z,99.90
2019-05-12T01:00:18.583Z,99.90
2019-05-12T01:03:00.205Z,99.90
2019-05-12T01:05:29.373Z,99.90
2019-05-12T01:07:58.576Z,99.90
2019-05-12T01:10:28.543Z,99.90
2019-05-12T01:12:58.120Z,99.90
2019-05-12T01:18:38.402Z,99.90
2019-05-12T01:21:25.758Z,99.90
2019-05-12T01:24:13.689Z,99.90
2019-05-12T01:27:01.654Z,99.90
2019-05-12T01:29:49.584Z,99.90
2019-05-12T01:35:32.526Z,99.90
2019-05-12T01:38:20.478Z,99.90
2019-05-12T01:41:08.872Z,99.90
2019-05-12T01:43:58.388Z,99.90
2019-05-12T01:46:39.188Z,99.90
2019-05-12T01:49:19.970Z,99.90
2019-05-12T01:52:00.775Z,99.90
2019-05-12T01:54:41.419Z,99.90
2019-05-12T01:57:10.087Z,99.90
2019-05-12T01:59:38.665Z,99.90
2019-05-12T02:02:08.618Z,99.90
2019-05-12T02:04:55.211Z,99.90
2019-05-12T02:10:12.213Z,99.90
2019-05-12T02:12:41.316Z,99.90
2019-05-12T02:15:10.518Z,99.90
2019-05-12T02:17:39.327Z,99.90
2019-05-12T02:20:28.771Z,99.90
2019-05-12T02:23:17.856Z,99.90
2019-05-12T02:26:08.235Z,99.90
2019-05-12T02:28:39.303Z,99.90
2019-05-12T02:31:29.333Z,99.90
2019-05-12T02:34:16.079Z,99.90
2019-05-12T02:37:05.674Z,99.90
2019-05-12T02:39:55.742Z,99.90
2019-05-12T02:42:46.265Z,99.90
2019-05-12T02:45:35.770Z,99.90
2019-05-12T02:48:17.023Z,99.90
2019-05-12T02:50:45.907Z,99.90
2019-05-12T02:53:35.176Z,99.90
2019-05-12T02:56:25.736Z,99.90
2019-05-12T02:59:34.897Z,99.90
2019-05-12T03:02:44.729Z,99.90
2019-05-12T03:05:35.036Z,99.90
2019-05-12T03:11:38.835Z,99.90
2019-05-12T03:14:26.799Z,99.90
2019-05-12T03:17:15.374Z,99.90
2019-05-12T03:20:25.050Z,99.90
2019-05-12T03:23:18.528Z,99.90
2019-05-12T03:26:05.178Z,99.90
2019-05-12T03:28:55.510Z,99.90
2019-05-12T03:31:47.762Z,99.90
2019-05-12T03:34:37.577Z,99.90
2019-05-12T03:37:30.618Z,99.90
2019-05-12T03:43:05.588Z,99.90
2019-05-12T03:45:55.926Z,99.90
2019-05-12T03:48:36.176Z,99.90
2019-05-12T03:51:17.073Z,99.90
2019-05-12T03:53:58.166Z,99.90
2019-05-12T03:56:38.885Z,99.90
2019-05-12T03:59:07.501Z,99.90
2019-05-12T04:01:36.883Z,99.90
2019-05-12T04:04:05.906Z,99.90
2019-05-12T04:06:34.841Z,99.90
2019-05-12T04:09:08.974Z,99.90
2019-05-12T04:11:37.789Z,99.90
2019-05-12T04:14:25.740Z,99.90
2019-05-12T04:17:14.979Z,99.90
2019-05-12T04:20:04.743Z,99.90
2019-05-12T04:22:54.762Z,99.90
2019-05-12T04:25:51.978Z,99.90
2019-05-12T04:28:35.059Z,99.90
2019-05-12T04:31:24.930Z,99.90
2019-05-12T04:34:15.641Z,99.90
2019-05-12T04:37:04.575Z,99.90
2019-05-12T04:39:55.210Z,99.90
2019-05-12T04:42:44.891Z,99.90
2019-05-12T04:45:34.262Z,99.90
2019-05-12T04:48:15.594Z,99.70
2019-05-12T04:50:57.270Z,98.00
2019-05-12T04:53:38.418Z,96.60
2019-05-12T04:56:20.573Z,96.00
2019-05-12T04:59:04.724Z,94.70
2019-05-12T05:01:45.412Z,94.20
2019-05-12T05:04:26.914Z,93.00
2019-05-12T05:07:07.773Z,92.60
2019-05-12T05:09:48.787Z,92.00
2019-05-12T05:12:29.734Z,90.80
2019-05-12T05:15:10.985Z,89.90
2019-05-12T05:17:54.322Z,88.70
2019-05-12T05:20:34.808Z,85.50
2019-05-12T05:23:16.016Z,83.20
2019-05-12T05:25:57.357Z,82.10
2019-05-12T05:28:38.450Z,81.00
2019-05-12T05:31:19.757Z,80.40
2019-05-12T05:34:00.853Z,77.00
2019-05-12T05:36:29.454Z,76.40
2019-05-12T05:39:01.766Z,75.30
2019-05-12T05:41:28.308Z,74.10
2019-05-12T05:43:58.552Z,73.80
2019-05-12T05:46:27.206Z,73.10
2019-05-12T05:48:55.784Z,73.20
2019-05-12T05:51:24.407Z,73.60
2019-05-12T05:54:13.758Z,72.60
2019-05-12T05:57:02.999Z,71.80
2019-05-12T05:59:53.654Z,70.50
2019-05-12T06:02:43.903Z,70.40
2019-05-12T06:05:31.157Z,69.90
2019-05-12T06:08:20.816Z,69.50
2019-05-12T06:11:08.795Z,68.00
2019-05-12T06:14:03.099Z,68.60
2019-05-12T06:16:47.846Z,66.80
2019-05-12T06:19:35.806Z,65.30
2019-05-12T06:22:24.206Z,65.20
2019-05-12T06:25:15.664Z,65.50
2019-05-12T06:30:58.236Z,67.20
2019-05-12T06:33:44.786Z,66.10
2019-05-12T06:36:21.774Z,66.30
2019-05-12T06:42:11.557Z,65.20
2019-05-12T06:47:39.411Z,66.00
2019-05-12T06:50:19.405Z,67.00
2019-05-12T06:53:00.533Z,66.30
2019-05-12T06:55:43.132Z,67.00
2019-05-12T06:58:29.559Z,66.80
2019-05-12T07:01:11.021Z,66.90
2019-05-12T07:03:47.972Z,67.20
2019-05-12T07:06:28.714Z,65.60
2019-05-12T07:09:15.291Z,66.80
2019-05-12T07:12:01.547Z,67.10
2019-05-12T07:14:34.709Z,67.70
2019-05-12T07:17:42.905Z,68.40
2019-05-12T07:20:17.074Z,68.60
2019-05-12T07:22:58.310Z,68.80
2019-05-12T07:25:39.385Z,69.40
2019-05-12T07:28:20.143Z,69.00
2019-05-12T07:31:00.577Z,69.90
2019-05-12T07:33:45.059Z,69.70
2019-05-12T07:36:24.297Z,69.60
2019-05-12T07:39:08.316Z,69.80
2019-05-12T07:41:50.760Z,71.30
2019-05-12T07:44:32.148Z,72.60
2019-05-12T07:47:13.829Z,71.70
2019-05-12T07:49:55.209Z,71.10
2019-05-12T07:52:36.297Z,70.50
2019-05-12T07:55:17.188Z,72.90
2019-05-12T07:58:03.968Z,71.90
2019-05-12T08:00:40.218Z,70.30
2019-05-12T08:03:22.102Z,70.40
2019-05-12T08:06:04.638Z,72.10
2019-05-12T08:08:51.109Z,71.70
2019-05-12T08:11:28.805Z,70.30
2019-05-12T08:14:15.445Z,71.00
2019-05-12T08:16:54.327Z,69.80
2019-05-12T08:19:35.940Z,70.90
2019-05-12T08:22:18.868Z,69.00
2019-05-12T08:24:58.691Z,67.60
2019-05-12T08:27:45.182Z,67.10
2019-05-12T08:30:23.935Z,67.50
2019-05-12T08:33:09.629Z,71.00
2019-05-12T08:35:47.236Z,67.90
2019-05-12T08:38:28.564Z,67.50
2019-05-12T08:41:09.869Z,68.50
2019-05-12T08:43:54.666Z,68.90
2019-05-12T08:46:34.330Z,69.70
2019-05-12T08:49:15.557Z,70.40
2019-05-12T08:52:00.122Z,72.40
2019-05-12T08:54:39.625Z,70.70
2019-05-12T08:57:24.046Z,68.90
2019-05-12T09:00:08.711Z,68.90
2019-05-12T09:02:50.579Z,70.40
2019-05-12T09:05:34.637Z,70.90
2019-05-12T09:08:13.849Z,66.10
2019-05-12T09:10:55.524Z,67.40
2019-05-12T09:13:37.153Z,68.20
2019-05-12T09:16:17.849Z,66.30
2019-05-12T09:18:59.139Z,66.60
2019-05-12T09:21:40.439Z,65.90
2019-05-12T09:24:25.307Z,67.30
2019-05-12T09:27:06.987Z,66.40
2019-05-12T09:29:45.570Z,68.70
2019-05-12T09:32:26.340Z,65.40
2019-05-12T09:35:07.444Z,62.70
2019-05-12T09:37:48.355Z,63.90
2019-05-12T09:40:28.924Z,63.00
2019-05-12T09:43:10.858Z,63.20
2019-05-12T09:45:56.274Z,64.10
2019-05-12T09:48:39.045Z,63.10
2019-05-12T09:51:18.062Z,64.00
2019-05-12T09:53:58.828Z,61.40
2019-05-12T09:56:41.276Z,62.70
2019-05-12T09:59:23.625Z,58.80
2019-05-12T10:02:04.163Z,60.40
2019-05-12T10:04:44.813Z,59.30
2019-05-12T10:07:25.734Z,56.60
2019-05-12T10:10:06.648Z,56.80
2019-05-12T10:12:50.509Z,55.30
2019-05-12T10:15:30.478Z,59.00
2019-05-12T10:18:11.483Z,61.10
2019-05-12T10:20:53.468Z,63.00
2019-05-12T10:23:34.149Z,63.80
2019-05-12T10:26:15.426Z,64.80
2019-05-12T10:28:58.327Z,66.50
2019-05-12T10:31:39.401Z,66.30
2019-05-12T10:34:20.305Z,62.50
2019-05-12T10:37:00.709Z,61.90
2019-05-12T10:39:41.242Z,63.60
2019-05-12T10:42:24.207Z,64.90
2019-05-12T10:45:04.804Z,65.40
2019-05-12T10:47:45.993Z,67.00
2019-05-12T10:50:26.753Z,64.90
2019-05-12T10:53:09.807Z,65.70
2019-05-12T10:55:49.715Z,66.20
2019-05-12T10:58:31.037Z,66.50
2019-05-12T11:01:13.370Z,64.10
2019-05-12T11:03:54.445Z,64.90
2019-05-12T11:06:39.745Z,64.80
2019-05-12T11:09:07.760Z,66.00
2019-05-12T11:11:42.149Z,65.80
2019-05-12T11:14:07.036Z,65.70
2019-05-12T11:16:35.691Z,63.70
2019-05-12T11:19:06.358Z,65.10
2019-05-12T11:21:34.631Z,65.80
2019-05-12T11:24:03.854Z,68.00
2019-05-12T11:26:32.544Z,63.70
2019-05-12T11:29:01.117Z,66.10
2019-05-12T11:31:30.036Z,66.70
2019-05-12T11:34:17.969Z,66.10
2019-05-12T11:37:06.318Z,65.00
2019-05-12T11:39:54.565Z,63.80
2019-05-12T11:42:46.797Z,62.40
2019-05-12T11:45:33.643Z,62.00
2019-05-12T11:48:23.572Z,63.70
2019-05-12T11:51:14.303Z,64.80
2019-05-12T11:57:08.916Z,65.60
2019-05-12T12:00:01.750Z,62.40
2019-05-12T12:02:47.773Z,63.00
2019-05-12T12:05:38.211Z,63.10
2019-05-12T12:08:32.523Z,63.40
2019-05-12T12:11:18.960Z,62.00
2019-05-12T12:14:08.424Z,59.20
2019-05-12T12:16:50.231Z,59.20
2019-05-12T12:19:37.734Z,61.10
2019-05-12T12:22:14.522Z,61.50
2019-05-12T12:24:55.513Z,61.90
2019-05-12T12:27:36.253Z,57.90
2019-05-12T12:30:19.756Z,58.10
2019-05-12T12:33:00.445Z,60.70
2019-05-12T12:35:44.331Z,60.00
2019-05-12T12:38:25.413Z,60.70
2019-05-12T12:41:06.584Z,62.50
2019-05-12T12:43:47.555Z,62.90
2019-05-12T12:46:29.080Z,63.20
2019-05-12T12:49:10.483Z,63.60
2019-05-12T12:51:51.978Z,64.70
2019-05-12T12:54:20.728Z,65.30
2019-05-12T12:57:28.222Z,67.00
2019-05-12T13:00:09.463Z,64.10
2019-05-12T13:02:50.061Z,65.80
2019-05-12T13:05:31.369Z,64.40
2019-05-12T13:08:12.545Z,64.90
2019-05-12T13:10:54.216Z,66.70
2019-05-12T13:13:35.268Z,67.10
2019-05-12T13:16:16.433Z,67.30
2019-05-12T13:18:56.844Z,68.80
2019-05-12T13:21:37.422Z,69.20
2019-05-12T13:24:18.796Z,69.70
2019-05-12T13:26:59.874Z,70.90
2019-05-12T13:29:39.854Z,69.20
2019-05-12T13:32:32.136Z,70.60
2019-05-12T13:38:24.537Z,69.70
2019-05-12T13:41:16.017Z,70.70
2019-05-12T13:44:03.962Z,70.90
2019-05-12T13:46:54.806Z,70.10
2019-05-12T13:49:45.212Z,69.30
2019-05-12T13:52:33.109Z,70.00
2019-05-12T13:55:20.862Z,71.30
2019-05-12T13:58:08.949Z,72.30
2019-05-12T14:03:28.011Z,71.20
2019-05-12T14:05:57.061Z,71.90
2019-05-12T14:08:25.977Z,72.40
2019-05-12T14:10:59.408Z,71.90
2019-05-12T14:13:24.832Z,72.50
2019-05-12T14:15:53.799Z,72.50
2019-05-12T14:18:22.724Z,73.30
2019-05-12T14:20:58.865Z,73.70
2019-05-12T14:23:23.801Z,73.40
2019-05-12T14:26:13.505Z,73.30
2019-05-12T14:29:01.111Z,73.60
2019-05-12T14:31:54.484Z,74.10
2019-05-12T14:34:39.071Z,72.80
2019-05-12T14:37:27.035Z,72.90
2019-05-12T14:40:15.099Z,73.50
2019-05-12T14:43:03.746Z,73.60
2019-05-12T14:45:54.157Z,74.40
2019-05-12T14:48:48.486Z,75.80
2019-05-12T14:51:14.126Z,76.40
2019-05-12T14:54:04.017Z,75.30
2019-05-12T14:56:55.766Z,75.00
2019-05-12T14:59:41.363Z,74.90
2019-05-12T15:02:29.634Z,72.80
2019-05-12T15:05:14.064Z,73.00
2019-05-12T15:07:58.487Z,71.80
2019-05-12T15:10:37.213Z,73.20
2019-05-12T15:13:17.768Z,73.90
2019-05-12T15:16:00.082Z,74.40
2019-05-12T15:18:46.777Z,73.90
2019-05-12T15:21:27.446Z,75.10
2019-05-12T15:23:53.885Z,76.00
2019-05-12T15:26:24.214Z,75.80
2019-05-12T15:28:54.283Z,76.80
2019-05-12T15:31:53.242Z,76.80
2019-05-12T15:34:33.761Z,76.40
2019-05-12T15:37:23.760Z,75.30
2019-05-12T15:40:23.913Z,76.40
2019-05-12T15:43:05.208Z,76.80
2019-05-12T15:45:55.256Z,76.40
2019-05-12T15:48:40.683Z,75.50
2019-05-12T15:51:28.790Z,76.00
2019-05-12T15:54:16.717Z,80.20
2019-05-12T15:57:04.691Z,79.90
2019-05-12T15:59:54.157Z,77.20
2019-05-12T16:05:49.430Z,78.90
2019-05-12T16:08:37.359Z,79.50
2019-05-12T16:11:25.313Z,80.90
2019-05-12T16:14:13.589Z,80.60
2019-05-12T16:16:54.501Z,80.80
2019-05-12T16:19:35.245Z,82.50
2019-05-12T16:22:16.039Z,81.70
2019-05-12T16:24:57.241Z,81.80
2019-05-12T16:27:37.991Z,81.70
2019-05-12T16:30:20.237Z,82.40
2019-05-12T16:33:03.415Z,82.90
2019-05-12T16:35:44.357Z,84.20
2019-05-12T16:38:25.962Z,86.70
2019-05-12T16:41:07.159Z,83.00
2019-05-12T16:43:48.065Z,83.20
2019-05-12T16:46:29.108Z,84.30
2019-05-12T16:49:09.771Z,83.10
2019-05-12T16:51:50.920Z,83.80
2019-05-12T16:54:19.839Z,85.30
2019-05-12T16:56:48.749Z,80.10
2019-05-12T16:59:21.875Z,76.40
2019-05-12T17:01:48.352Z,77.70
2019-05-12T17:04:17.562Z,76.40
2019-05-12T17:06:47.150Z,76.10
2019-05-12T17:09:16.105Z,76.50
2019-05-12T17:11:50.101Z,74.20
2019-05-12T17:17:33.849Z,75.90
2019-05-12T17:20:14.879Z,76.40
2019-05-12T17:22:59.839Z,76.00
2019-05-12T17:25:38.491Z,76.10
2019-05-12T17:28:19.693Z,77.90
2019-05-12T17:31:00.434Z,77.50
2019-05-12T17:33:41.057Z,78.00
2019-05-12T17:36:24.191Z,78.40
2019-05-12T17:39:05.712Z,79.30
2019-05-12T17:41:46.812Z,79.30
2019-05-12T17:44:31.269Z,80.20
2019-05-12T17:47:12.925Z,80.20
2019-05-12T17:49:54.101Z,79.60
2019-05-12T17:52:34.600Z,79.20
2019-05-12T17:55:15.079Z,79.60
2019-05-12T17:57:57.909Z,79.50
2019-05-12T18:00:41.449Z,79.00
2019-05-12T18:03:24.667Z,78.10
2019-05-12T18:06:04.163Z,77.80
2019-05-12T18:08:44.959Z,77.90
2019-05-12T18:11:26.212Z,78.90
2019-05-12T18:14:07.462Z,79.10
2019-05-12T18:16:53.963Z,80.00
2019-05-12T18:19:38.085Z,80.10
2019-05-12T18:22:26.138Z,80.50
2019-05-12T18:25:14.758Z,80.70
2019-05-12T18:28:03.921Z,79.00
2019-05-12T18:30:53.793Z,78.10
2019-05-12T18:33:52.267Z,79.70
2019-05-12T18:36:26.053Z,80.20
2019-05-12T18:38:57.977Z,81.60
2019-05-12T18:41:25.197Z,82.40
2019-05-12T18:44:17.417Z,83.00
2019-05-12T18:47:16.936Z,83.80
2019-05-12T18:49:53.863Z,83.80
2019-05-12T18:55:40.102Z,83.30
2019-05-12T18:58:30.518Z,84.00
2019-05-12T19:01:15.809Z,84.50
2019-05-12T19:04:04.044Z,84.80
2019-05-12T19:06:54.201Z,85.10
2019-05-12T19:09:44.833Z,85.20
2019-05-12T19:12:33.306Z,85.00
2019-05-12T19:15:22.138Z,85.30
2019-05-12T19:23:57.213Z,86.50
2019-05-12T19:26:46.621Z,86.80
2019-05-12T19:29:42.588Z,87.50
2019-05-12T19:32:27.932Z,87.70
2019-05-12T19:35:19.897Z,87.90
2019-05-12T19:37:57.533Z,88.80
2019-05-12T19:40:38.927Z,89.10
2019-05-12T19:43:08.323Z,89.70
2019-05-12T19:45:37.221Z,90.40
2019-05-12T19:48:05.867Z,90.90
2019-05-12T19:50:34.572Z,91.50
2019-05-12T19:53:04.214Z,91.70
2019-05-12T19:55:33.760Z,92.50
2019-05-12T19:58:10.747Z,93.40
2019-05-12T20:00:33.539Z,93.60
2019-05-12T20:03:04.325Z,94.10
2019-05-12T20:05:34.358Z,94.50
2019-05-12T20:08:04.174Z,95.10
2019-05-12T20:10:49.359Z,95.50
2019-05-12T20:13:29.581Z,96.30
2019-05-12T20:16:11.640Z,97.00
2019-05-12T20:18:57.684Z,97.90
2019-05-12T20:21:36.605Z,98.10
2019-05-12T20:24:17.749Z,99.10
2019-05-12T20:26:59.011Z,99.50
2019-05-12T20:29:40.405Z,99.90
2019-05-12T20:32:21.312Z,99.90
2019-05-12T20:35:04.053Z,99.90
2019-05-12T20:37:53.145Z,99.90
2019-05-12T20:40:27.538Z,99.90
2019-05-12T20:43:13.854Z,99.90
2019-05-12T20:45:52.642Z,99.90
2019-05-12T20:48:33.876Z,99.90
2019-05-12T20:51:19.982Z,99.90
2019-05-12T20:53:57.043Z,99.90
2019-05-12T20:56:37.995Z,99.90
2019-05-12T20:59:22.009Z,99.90
2019-05-12T21:02:03.649Z,99.90
2019-05-12T21:04:44.513Z,99.90
2019-05-12T21:07:27.083Z,99.90
2019-05-12T21:12:50.489Z,99.90
2019-05-12T21:18:14.727Z,99.90
2019-05-12T21:23:38.101Z,99.90
2019-05-12T21:26:18.967Z,99.90
2019-05-12T21:29:00.108Z,99.90
2019-05-12T21:31:41.606Z,99.90
2019-05-12T21:34:23.379Z,99.90
2019-05-12T21:37:06.639Z,99.90
2019-05-12T21:39:50.966Z,99.90
2019-05-12T21:42:30.166Z,99.90
2019-05-12T21:45:14.324Z,99.90
2019-05-12T21:47:56.696Z,99.90
2019-05-12T21:50:32.504Z,99.90
2019-05-12T21:52:59.290Z,99.90
2019-05-12T21:55:26.688Z,99.90
2019-05-12T21:57:55.426Z,99.90
2019-05-12T22:00:36.993Z,99.90
2019-05-12T22:03:08.192Z,99.90
2019-05-12T22:05:55.817Z,99.90
2019-05-12T22:08:45.301Z,99.90
2019-05-12T22:11:34.591Z,99.90
2019-05-12T22:14:24.026Z,99.90
2019-05-12T22:17:13.681Z,99.90
2019-05-12T22:19:54.937Z,99.90
2019-05-12T22:22:35.968Z,99.90
2019-05-12T22:25:17.622Z,99.90
2019-05-12T22:28:04.373Z,99.90
2019-05-12T22:30:43.831Z,99.90
2019-05-12T22:33:24.322Z,99.90
2019-05-12T22:36:14.040Z,99.90
2019-05-12T22:38:52.046Z,99.90
2019-05-12T22:41:30.307Z,99.90
2019-05-12T22:44:18.446Z,99.90
2019-05-12T22:46:54.159Z,99.90
2019-05-12T22:49:34.562Z,99.90
2019-05-12T22:52:17.431Z,99.90
2019-05-12T22:54:57.235Z,99.90
2019-05-12T22:57:29.293Z,99.90
2019-05-12T23:03:24.026Z,99.90
2019-05-12T23:06:22.786Z,99.90
2019-05-12T23:09:01.834Z,99.90
2019-05-12T23:11:50.108Z,99.90
2019-05-12T23:14:38.133Z,99.90
2019-05-12T23:17:26.120Z,99.90
2019-05-12T23:20:07.048Z,99.90
2019-05-12T23:22:47.618Z,99.90
2019-05-12T23:25:28.486Z,99.90
2019-05-12T23:28:10.393Z,99.90
2019-05-12T23:30:43.682Z,99.90
2019-05-12T23:33:09.453Z,99.90
2019-05-12T23:35:57.373Z,99.90
2019-05-12T23:38:45.614Z,99.90
2019-05-12T23:41:34.368Z,99.90
2019-05-12T23:44:23.931Z,99.90
2019-05-12T23:47:13.205Z,99.90
2019-05-12T23:50:03.858Z,99.90
2019-05-12T23:52:50.741Z,99.90
2019-05-12T23:55:38.660Z,99.90
2019-05-12T23:58:26.962Z,99.90
